Latest Weather Observations for Swanbourne

IDW60801

Issued at 5:04 pm WST Sunday 26 March 2017 (issued every 30 minutes, with the page automatically refreshed every 10 minutes)

About weather observations | Map of weather stations | Latest weather observations for WA | Other Formats
Station Details ID: 009215 Name: SWANBOURNE Lat: -31.96 Lon: 115.76 Height: 40.96 m
Data from the previous 72 hours. | See also: Recent months at Swanbourne
Date/Time
WST
Temp
°C
App
Temp
°C
Dew
Point
°C
Rel
Hum
%
Delta-T
°C
Wind Press
QNH
hPa
Press
MSL
hPa
Rain since
9am
mm
Dir  Spd
km/h
Gust
km/h
Spd
kts
Gust
kts
26/05:00pm 18.8 13.4 8.2 50 5.5 SSW 26 39 14 21 - - 0.0
26/04:30pm 19.5 14.4 9.1 51 5.5 SSW 26 39 14 21 - - 0.0
26/04:00pm 19.9 15.0 10.0 53 5.3 SSW 26 39 14 21 - - 0.0
26/03:30pm 19.6 14.3 10.0 54 5.1 SSW 28 43 15 23 - - 0.0
26/03:00pm 20.8 15.6 10.3 51 5.7 SW 28 41 15 22 - - 0.0
26/02:30pm 19.7 14.5 10.1 54 5.2 SW 28 39 15 21 - - 0.0
26/02:00pm 20.9 15.1 9.5 48 6.1 SW 30 39 16 21 - - 0.0
26/01:30pm 20.7 14.7 10.2 51 5.7 SW 32 44 17 24 - - 0.0
26/01:11pm 21.5 15.6 9.1 45 6.6 SW 30 50 16 27 - - 0.0
26/01:00pm 21.3 15.3 8.6 44 6.7 SW 30 46 16 25 - - 0.0
26/12:30pm 21.3 15.1 9.5 47 6.3 SW 32 43 17 23 - - 0.0
26/12:11pm 20.9 15.0 9.2 47 6.2 SW 30 48 16 26 - - 0.0
26/12:00pm 20.7 14.8 9.0 47 6.2 SW 30 46 16 25 - - 0.0
26/11:30am 21.1 15.6 9.0 46 6.4 WSW 28 39 15 21 - - 0.0
26/11:05am 21.1 14.9 7.7 42 6.9 SW 30 48 16 26 - - 0.0
26/11:00am 20.9 14.6 8.9 46 6.4 WSW 32 44 17 24 - - 0.0
26/10:30am 20.9 15.7 11.5 55 5.2 SW 30 44 16 24 - - 0.0
26/10:00am 19.4 13.8 11.4 60 4.4 SW 32 48 17 26 - - 0.0
26/09:45am 19.6 14.5 11.9 61 4.3 WSW 30 52 16 28 - - 0.0
26/09:30am 20.3 14.6 9.8 51 5.6 WSW 30 41 16 22 - - 0.0
26/09:10am 20.1 14.8 9.7 51 5.6 SW 28 48 15 26 - - 0.0
26/09:00am 19.8 13.7 9.7 52 5.4 WSW 32 44 17 24 - - 1.2
26/08:30am 19.5 12.9 11.5 60 4.4 WSW 37 54 20 29 - - 1.2
26/08:20am 19.2 13.4 11.5 61 4.2 WSW 33 52 18 28 - - 1.2
26/08:00am 19.2 14.0 12.7 66 3.7 SW 32 48 17 26 - - 1.2
26/07:51am 19.0 13.2 12.7 67 3.5 WSW 35 54 19 29 - - 1.2
26/07:30am 18.1 13.7 14.2 78 2.2 SW 30 41 16 22 - - 1.2
26/07:00am 17.7 12.5 14.6 82 1.8 SW 35 50 19 27 - - 1.2
26/06:30am 17.3 13.5 16.7 96 0.4 WSW 32 50 17 27 - - 1.2
26/06:00am 17.1 12.3 16.6 97 0.3 SW 37 63 20 34 - - 0.8
26/05:52am 17.3 13.1 16.3 94 0.6 SW 33 56 18 30 - - 0.8
26/05:40am 18.8 14.1 15.9 83 1.7 W 35 54 19 29 - - 0.4
26/05:30am 19.7 14.0 15.1 75 2.7 W 39 57 21 31 - - 0.0
26/05:24am 19.9 14.8 14.9 73 2.9 W 35 54 19 29 - - 0.0
26/05:00am 20.1 15.8 15.3 74 2.8 W 32 48 17 26 - - 0.0
26/04:30am 19.6 15.8 14.8 74 2.8 WNW 28 41 15 22 - - 0.0
26/04:00am 19.6 16.7 15.0 75 2.7 WNW 24 37 13 20 - - 0.0
26/03:30am 19.7 16.2 14.5 72 3.0 W 26 35 14 19 - - 0.0
26/03:00am 19.6 15.9 13.8 69 3.3 W 26 39 14 21 - - 0.0
26/02:30am 19.4 16.0 13.6 69 3.3 W 24 33 13 18 - - 0.0
26/02:00am 19.2 15.6 12.9 67 3.6 W 24 32 13 17 - - 0.0
26/01:30am 19.7 17.0 13.6 68 3.5 W 20 30 11 16 - - 0.0
26/01:00am 19.6 16.2 12.6 64 3.9 W 22 30 12 16 - - 0.0
26/12:30am 20.0 17.1 14.1 69 3.4 W 22 35 12 19 - - 0.0
26/12:00am 20.0 16.6 13.7 67 3.6 W 24 35 13 19 - - 0.0
 
Date/Time
WST
Temp
°C
App
Temp
°C
Dew
Point
°C
Rel
Hum
%
Delta-T
°C
Wind Press
QNH
hPa
Press
MSL
hPa
Rain since
9am
mm
Dir  Spd
km/h
Gust
km/h
Spd
kts
Gust
kts
25/11:30pm 20.0 17.2 15.4 75 2.7 W 24 35 13 19 - - 0.0
25/11:00pm 20.1 18.3 16.9 82 1.9 WSW 22 33 12 18 - - 0.0
25/10:30pm 19.9 18.7 17.1 84 1.7 WSW 19 28 10 15 - - 0.0
25/10:00pm 20.1 19.3 18.4 90 1.1 WSW 20 30 11 16 - - 0.0
25/09:30pm 19.4 20.8 18.6 95 0.5 W 9 15 5 8 - - 0.0
25/09:00pm 19.1 20.7 17.8 92 0.8 WSW 6 9 3 5 - - 0.0
25/08:30pm 19.2 20.5 17.5 90 1.0 SW 7 9 4 5 - - 0.0
25/08:00pm 19.4 20.2 17.4 88 1.2 SW 9 15 5 8 - - 0.0
25/07:30pm 19.3 20.3 16.9 86 1.5 SW 7 11 4 6 - - 0.0
25/07:00pm 19.5 19.7 16.7 84 1.7 SW 11 17 6 9 - - 0.0
25/06:30pm 19.9 19.5 16.2 79 2.2 SW 13 20 7 11 - - 0.0
25/06:00pm 20.6 19.8 16.0 75 2.8 SW 15 24 8 13 - - 0.0
25/05:30pm 21.4 20.6 16.1 72 3.2 SW 15 24 8 13 - - 0.0
25/05:00pm 21.7 21.0 16.4 72 3.2 SW 15 20 8 11 - - 0.0
25/04:30pm 22.0 21.4 16.7 72 3.2 SW 15 20 8 11 - - 0.0
25/04:00pm 21.6 20.6 16.6 73 3.0 SW 17 22 9 12 - - 0.0
25/03:30pm 22.0 21.0 16.5 71 3.3 SSW 17 24 9 13 - - 0.0
25/03:00pm 21.7 20.1 16.0 70 3.4 SW 19 24 10 13 - - 0.0
25/02:30pm 22.2 21.5 16.5 70 3.5 SW 15 20 8 11 - - 0.0
25/02:00pm 22.4 21.1 16.9 71 3.4 SW 19 24 10 13 - - 0.0
25/01:30pm 22.2 20.7 16.2 69 3.6 SW 19 28 10 15 - - 0.0
25/01:00pm 21.6 19.7 15.7 69 3.5 SW 20 28 11 15 - - 0.0
25/12:30pm 21.8 19.8 15.4 67 3.8 SSW 20 28 11 15 - - 0.0
25/12:00pm 22.6 21.6 15.7 65 4.2 SW 15 20 8 11 - - 0.0
25/11:30am 22.4 21.0 15.5 65 4.1 SW 17 22 9 12 - - 0.0
25/11:00am 23.2 23.0 14.7 58 5.0 W 9 13 5 7 - - 0.0
25/10:30am 23.4 23.3 13.3 53 5.9 E 6 13 3 7 - - 0.0
25/10:00am 23.5 23.0 13.9 55 5.6 ENE 9 13 5 7 - - 0.0
25/09:30am 22.4 22.5 14.5 61 4.7 E 7 13 4 7 - - 0.0
25/09:00am 20.6 20.5 14.0 66 3.8 ESE 7 19 4 10 - - 0.0
25/08:30am 19.6 19.3 14.4 72 3.0 ESE 9 15 5 8 - - 0.0
25/08:00am 19.0 19.6 15.3 79 2.2 ENE 6 11 3 6 - - 0.0
25/07:30am 17.4 18.5 15.7 90 1.0 E 4 7 2 4 - - 0.0
25/07:00am 15.9 16.6 14.6 92 0.7 E 4 6 2 3 - - 0.0
25/06:30am 15.6 15.7 14.0 90 0.9 E 6 9 3 5 - - 0.0
25/06:00am 16.1 15.3 14.1 88 1.1 E 11 15 6 8 - - 0.0
25/05:30am 16.3 15.1 14.0 86 1.3 E 13 19 7 10 - - 0.0
25/05:00am 16.6 15.0 13.9 84 1.5 E 15 19 8 10 - - 0.0
25/04:30am 17.1 15.6 14.2 83 1.7 E 15 20 8 11 - - 0.0
25/04:00am 16.9 15.8 14.2 84 1.5 ENE 13 20 7 11 - - 0.0
25/03:30am 16.4 16.2 13.5 83 1.6 E 7 11 4 6 - - 0.0
25/03:00am 17.6 16.4 13.9 79 2.1 E 13 17 7 9 - - 0.0
25/02:30am 18.1 16.9 14.0 77 2.3 E 13 17 7 9 - - 0.0
25/02:00am 18.4 16.8 13.9 75 2.6 ESE 15 20 8 11 - - 0.0
25/01:30am 17.6 16.2 13.5 77 2.3 ESE 13 15 7 8 - - 0.0
25/01:00am 18.1 17.1 13.4 74 2.7 ESE 11 15 6 8 - - 0.0
25/12:30am 18.0 17.5 13.7 76 2.4 SE 9 11 5 6 - - 0.0
25/12:00am 18.1 17.8 13.4 74 2.7 SE 7 11 4 6 - - 0.0
 
Date/Time
WST
Temp
°C
App
Temp
°C
Dew
Point
°C
Rel
Hum
%
Delta-T
°C
Wind Press
QNH
hPa
Press
MSL
hPa
Rain since
9am
mm
Dir  Spd
km/h
Gust
km/h
Spd
kts
Gust
kts
24/11:30pm 18.7 18.1 13.6 72 2.9 SE 9 11 5 6 - - 0.0
24/11:00pm 18.8 18.3 13.9 73 2.8 SE 9 11 5 6 - - 0.0
24/10:30pm 19.0 19.0 14.1 73 2.8 SE 7 11 4 6 - - 0.0
24/10:00pm 19.2 19.4 14.7 75 2.6 SE 7 11 4 6 - - 0.0
24/09:30pm 19.3 19.3 15.2 77 2.4 SE 9 13 5 7 - - 0.0
24/09:00pm 19.6 20.2 15.7 78 2.3 SSE 7 9 4 5 - - 0.0
24/08:30pm 20.1 20.4 16.1 78 2.4 SSE 9 13 5 7 - - 0.0
24/08:00pm 20.2 20.9 17.0 82 1.9 SSE 9 15 5 8 - - 0.0
24/07:30pm 20.5 20.5 17.3 82 2.0 S 13 20 7 11 - - 0.0
24/07:00pm 20.7 20.0 17.3 81 2.1 S 17 26 9 14 - - 0.0
24/06:30pm 20.8 20.0 17.2 80 2.2 S 17 26 9 14 - - 0.0
24/06:00pm 21.1 19.8 16.9 77 2.6 S 19 32 10 17 - - 0.0
24/05:30pm 21.5 19.4 17.1 76 2.7 SSW 24 39 13 21 - - 0.0
24/05:00pm 21.6 19.2 17.4 77 2.6 SSW 26 37 14 20 - - 0.0
24/04:30pm 21.6 19.6 17.4 77 2.6 SSW 24 39 13 21 - - 0.0
24/04:00pm 22.0 19.3 17.6 76 2.7 SSW 28 41 15 22 - - 0.0
24/03:30pm 22.2 20.1 17.1 73 3.1 SSW 24 35 13 19 - - 0.0
24/03:00pm 22.7 21.3 16.9 70 3.6 SSW 20 33 11 18 - - 0.0
24/02:30pm 22.2 19.5 16.7 71 3.4 SSW 26 37 14 20 - - 0.0
24/02:00pm 22.4 20.8 16.4 69 3.6 SW 20 32 11 17 - - 0.0
24/01:30pm 22.3 20.2 16.3 69 3.6 SW 22 30 12 16 - - 0.0
24/01:00pm 22.5 21.0 16.8 70 3.5 SW 20 30 11 16 - - 0.0
24/12:30pm 21.8 20.1 16.3 71 3.3 SW 20 28 11 15 - - 0.0
24/12:00pm 21.7 20.1 16.0 70 3.4 SW 19 26 10 14 - - 0.0
24/11:30am 22.0 20.3 15.8 68 3.7 SSW 19 28 10 15 - - 0.0
24/11:00am 20.6 19.7 15.8 74 2.9 SW 15 24 8 13 - - 0.0
24/10:30am 20.8 20.2 15.6 72 3.1 SW 13 19 7 10 - - 0.0
24/10:00am 20.3 20.7 15.3 73 3.0 SSW 7 13 4 7 - - 0.0
24/09:30am 19.9 20.2 15.1 74 2.8 SSE 7 11 4 6 - - 0.0
24/09:00am 18.7 20.5 18.4 98 0.2 SSE 6 11 3 6 - - 0.0
24/08:30am 17.3 19.0 17.1 99 0.1 SE 4 6 2 3 - - 0.0
24/08:00am 16.3 17.6 16.1 99 0.1 SSE 4 7 2 4 - - 0.0
24/07:30am 15.5 16.5 15.3 99 0.1 ESE 4 6 2 3 - - 0.0
24/07:00am 14.8 15.0 14.6 99 0.1 ESE 7 9 4 5 - - 0.0
24/06:30am 14.4 14.4 14.2 99 0.1 E 7 11 4 6 - - 0.0
24/06:00am 14.4 14.4 14.2 99 0.1 ESE 7 9 4 5 - - 0.0
24/05:30am 14.8 15.0 14.6 99 0.1 SE 7 9 4 5 - - 0.0
24/05:00am 14.8 15.0 14.6 99 0.1 SE 7 9 4 5 - - 0.0
24/04:30am 15.1 15.3 14.8 98 0.2 SE 7 11 4 6 - - 0.0
24/04:00am 15.6 16.0 15.3 98 0.2 SE 7 11 4 6 - - 0.0
24/03:30am 15.8 15.9 15.5 98 0.2 SE 9 15 5 8 - - 0.0
24/03:00am 16.2 16.5 15.9 98 0.2 SE 9 13 5 7 - - 0.0
24/02:30am 16.6 17.0 16.3 98 0.2 SE 9 13 5 7 - - 0.0
24/02:00am 16.6 17.4 16.3 98 0.2 SSE 7 11 4 6 - - 0.0
24/01:30am 16.9 17.4 16.6 98 0.2 SSE 9 13 5 7 - - 0.0
24/01:00am 17.0 17.4 16.4 96 0.4 SSE 9 11 5 6 - - 0.0
24/12:30am 17.3 18.1 16.3 94 0.6 SSE 7 9 4 5 - - 0.0
24/12:00am 17.8 18.3 16.5 92 0.8 SSE 9 13 5 7 - - 0.0
 
Date/Time
WST
Temp
°C
App
Temp
°C
Dew
Point
°C
Rel
Hum
%
Delta-T
°C
Wind Press
QNH
hPa
Press
MSL
hPa
Rain since
9am
mm
Dir  Spd
km/h
Gust
km/h
Spd
kts
Gust
kts
23/11:30pm 18.0 18.4 16.3 90 1.0 SSE 9 13 5 7 - - 0.0
23/11:00pm 18.3 19.2 16.5 89 1.1 SSE 7 15 4 8 - - 0.0
23/10:30pm 18.4 18.8 16.2 87 1.3 SSE 9 15 5 8 - - 0.0
23/10:00pm 18.8 18.9 16.4 86 1.4 SSE 11 17 6 9 - - 0.0
23/09:30pm 18.9 18.5 16.1 84 1.7 S 13 19 7 10 - - 0.0
23/09:00pm 19.0 17.8 16.2 84 1.7 S 17 28 9 15 - - 0.0
23/08:30pm 19.2 17.6 15.9 81 2.0 S 19 32 10 17 - - 0.0
23/08:00pm 19.4 17.8 16.1 81 2.0 S 19 30 10 16 - - 0.0
23/07:30pm 19.4 17.9 16.2 82 1.9 SSW 19 33 10 18 - - 0.0
23/07:00pm 19.4 17.8 16.1 81 2.0 SSW 19 30 10 16 - - 0.0
23/06:30pm 19.4 17.5 15.7 79 2.2 SSW 20 33 11 18 - - 0.0
23/06:00pm 19.7 17.7 15.4 76 2.5 SSW 20 33 11 18 - - 0.0
23/05:30pm 19.8 17.8 15.4 76 2.6 SSW 20 32 11 17 - - 0.0

Other Formats:

Comma delimited format used in spreadsheet applications
http://www.bom.gov.au/fwo/IDW60801/IDW60801.94614.axf

JavaScript Object Notation format (JSON) in row-major order
http://www.bom.gov.au/fwo/IDW60801/IDW60801.94614.json